createdAt,value
2022-07-26T00:02:00.265Z,96765.50
2022-07-26T00:04:29.782Z,96766.47
2022-07-26T00:06:57.944Z,96761.91
2022-07-26T00:09:26.122Z,96758.34
2022-07-26T00:11:54.351Z,96755.78
2022-07-26T00:14:22.523Z,96767.50
2022-07-26T00:16:50.776Z,96780.16
2022-07-26T00:19:18.913Z,96775.63
2022-07-26T00:21:48.466Z,96771.19
2022-07-26T00:24:16.562Z,96762.22
2022-07-26T00:26:44.747Z,96742.41
2022-07-26T00:29:12.846Z,96747.81
2022-07-26T00:31:41.170Z,96742.41
2022-07-26T00:34:09.314Z,96746.97
2022-07-26T00:36:37.421Z,96746.97
2022-07-26T00:39:11.692Z,96752.53
2022-07-26T00:41:40.007Z,96742.56
2022-07-26T00:44:08.529Z,96732.72
2022-07-26T00:46:36.778Z,96720.19
2022-07-26T00:49:05.408Z,96708.50
2022-07-26T00:51:33.694Z,96706.66
2022-07-26T00:54:01.811Z,96702.22
2022-07-26T00:56:34.804Z,96703.09
2022-07-26T00:59:03.214Z,96694.97
2022-07-26T01:01:31.487Z,96691.41
2022-07-26T01:03:59.796Z,96682.41
2022-07-26T01:06:27.877Z,96677.00
2022-07-26T01:08:56.091Z,96669.88
2022-07-26T01:11:24.233Z,96662.63
2022-07-26T01:13:53.755Z,96658.19
2022-07-26T01:16:21.973Z,96650.94
2022-07-26T01:18:50.287Z,96644.66
2022-07-26T01:21:18.380Z,96659.06
2022-07-26T01:23:47.890Z,96650.06
2022-07-26T01:26:16.010Z,96635.66
2022-07-26T01:28:44.939Z,96633.97
2022-07-26T01:31:13.176Z,96642.97
2022-07-26T01:33:41.813Z,96645.69
2022-07-26T01:36:10.263Z,96639.41
2022-07-26T01:38:38.354Z,96633.97
2022-07-26T01:41:08.068Z,96633.97
2022-07-26T01:43:36.211Z,96632.25
2022-07-26T01:46:04.494Z,96626.84
2022-07-26T01:48:32.620Z,96616.16
2022-07-26T01:51:00.765Z,96618.72
2022-07-26T01:53:28.964Z,96623.31
2022-07-26T01:55:57.075Z,96628.72
2022-07-26T01:58:27.154Z,96638.69
2022-07-26T02:00:55.242Z,96635.13
2022-07-26T02:03:23.475Z,96642.38
2022-07-26T02:05:51.671Z,96646.97
2022-07-26T02:08:20.724Z,96651.38
2022-07-26T02:11:03.559Z,96660.50
2022-07-26T02:13:34.244Z,96657.94
2022-07-26T02:16:02.674Z,96647.09
2022-07-26T02:18:31.220Z,96649.81
2022-07-26T02:20:59.499Z,96657.09
2022-07-26T02:23:27.684Z,96660.63
2022-07-26T02:25:55.927Z,96658.94
2022-07-26T02:28:24.179Z,96661.66
2022-07-26T02:30:53.674Z,96653.53
2022-07-26T02:33:22.319Z,96653.53
2022-07-26T02:35:50.465Z,96651.81
2022-07-26T02:38:18.782Z,96663.50
2022-07-26T02:40:50.514Z,96667.06
2022-07-26T02:43:18.711Z,96664.53
2022-07-26T02:46:03.711Z,96670.75
2022-07-26T02:48:33.393Z,96672.63
2022-07-26T02:51:01.548Z,96679.91
2022-07-26T02:53:29.625Z,96675.34
2022-07-26T02:55:57.742Z,96671.78
2022-07-26T02:58:27.031Z,96671.78
2022-07-26T03:00:55.133Z,96670.91
2022-07-26T03:03:23.299Z,96673.63
2022-07-26T03:05:52.784Z,96673.63
2022-07-26T03:08:20.995Z,96664.63
2022-07-26T03:10:49.218Z,96664.63
2022-07-26T03:13:17.303Z,96665.66
2022-07-26T03:15:45.498Z,96679.03
2022-07-26T03:18:13.662Z,96688.19
2022-07-26T03:20:41.819Z,96684.59
2022-07-26T03:23:11.307Z,96673.78
2022-07-26T03:25:39.807Z,96681.91
2022-07-26T03:28:07.973Z,96681.91
2022-07-26T03:30:36.169Z,96679.19
2022-07-26T03:33:04.257Z,96677.47
2022-07-26T03:35:36.438Z,96683.75
2022-07-26T03:38:05.196Z,96682.88
2022-07-26T03:40:35.170Z,96681.03
2022-07-26T03:43:03.291Z,96675.78
2022-07-26T03:45:31.368Z,96681.91
2022-07-26T03:47:59.470Z,96677.47
2022-07-26T03:50:27.651Z,96673.94
2022-07-26T03:52:55.786Z,96677.47
2022-07-26T03:55:41.456Z,96680.19
2022-07-26T03:58:11.044Z,96675.78
2022-07-26T04:00:39.264Z,96681.19
2022-07-26T04:03:07.342Z,96684.75
2022-07-26T04:05:36.099Z,96692.03
2022-07-26T04:08:04.477Z,96687.47
2022-07-26T04:10:32.787Z,96703.72
2022-07-26T04:13:00.965Z,96695.59
2022-07-26T04:15:30.660Z,96705.84
2022-07-26T04:17:58.764Z,96701.31
2022-07-26T04:20:26.835Z,96709.00
2022-07-26T04:22:54.967Z,96719.28
2022-07-26T04:25:23.170Z,96729.38
2022-07-26T04:27:51.303Z,96728.66
2022-07-26T04:30:19.420Z,96727.09
2022-07-26T04:32:48.975Z,96731.66
2022-07-26T04:35:17.311Z,96732.81
2022-07-26T04:37:46.123Z,96741.91
2022-07-26T04:40:17.675Z,96743.91
2022-07-26T04:42:50.153Z,96743.06
2022-07-26T04:45:18.355Z,96748.59
2022-07-26T04:47:49.736Z,96751.31
2022-07-26T04:50:18.279Z,96745.91
2022-07-26T04:52:46.402Z,96741.50
2022-07-26T04:55:14.648Z,96750.59
2022-07-26T04:57:42.786Z,96769.69
2022-07-26T05:00:27.752Z,96786.06
2022-07-26T05:02:58.137Z,96789.63
2022-07-26T05:05:27.215Z,96785.22
2022-07-26T05:07:56.744Z,96789.75
2022-07-26T05:10:29.874Z,96806.00
2022-07-26T05:12:58.047Z,96802.31
2022-07-26T05:15:35.126Z,96816.69
2022-07-26T05:18:06.754Z,96822.94
2022-07-26T05:20:35.575Z,96821.25
2022-07-26T05:23:03.694Z,96817.66
2022-07-26T05:25:31.903Z,96824.81
2022-07-26T05:28:00.007Z,96814.00
2022-07-26T05:30:28.192Z,96808.28
2022-07-26T05:32:56.332Z,96811.53
2022-07-26T05:35:25.885Z,96810.41
2022-07-26T05:37:54.027Z,96807.44
2022-07-26T05:40:22.542Z,96796.63
2022-07-26T05:42:50.697Z,96803.16
2022-07-26T05:45:18.779Z,96804.28
2022-07-26T05:47:46.944Z,96804.44
2022-07-26T05:50:15.494Z,96806.44
2022-07-26T05:52:45.037Z,96811.13
2022-07-26T05:55:13.112Z,96812.81
2022-07-26T05:57:41.626Z,96817.41
2022-07-26T06:00:10.987Z,96815.53
2022-07-26T06:02:42.183Z,96816.53
2022-07-26T06:05:10.860Z,96822.94
2022-07-26T06:07:39.602Z,96823.94
2022-07-26T06:10:10.281Z,96825.63
2022-07-26T06:12:38.435Z,96825.78
2022-07-26T06:15:14.864Z,96824.94
2022-07-26T06:17:44.088Z,96815.97
2022-07-26T06:20:12.870Z,96817.97
2022-07-26T06:22:41.043Z,96823.38
2022-07-26T06:25:25.671Z,96828.19
2022-07-26T06:27:53.810Z,96828.19
2022-07-26T06:30:21.939Z,96825.38
2022-07-26T06:32:50.104Z,96823.38
2022-07-26T06:35:18.312Z,96826.66
2022-07-26T06:37:47.408Z,96828.34
2022-07-26T06:40:15.561Z,96828.22
2022-07-26T06:42:45.025Z,96828.94
2022-07-26T06:45:13.463Z,96826.09
2022-07-26T06:47:41.635Z,96829.50
2022-07-26T06:50:10.535Z,96833.06
2022-07-26T06:52:38.658Z,96832.06
2022-07-26T06:55:08.977Z,96825.66
2022-07-26T06:57:45.026Z,96828.38
2022-07-26T07:00:20.557Z,96821.78
2022-07-26T07:02:48.938Z,96828.94
2022-07-26T07:05:17.185Z,96826.06
2022-07-26T07:07:45.746Z,96829.66
2022-07-26T07:10:14.516Z,96825.09
2022-07-26T07:12:44.815Z,96821.38
2022-07-26T07:15:13.003Z,96825.69
2022-07-26T07:17:42.522Z,96823.97
2022-07-26T07:20:11.780Z,96827.53
2022-07-26T07:22:39.898Z,96831.09
2022-07-26T07:25:08.496Z,96823.84
2022-07-26T07:27:36.726Z,96828.25
2022-07-26T07:30:05.409Z,96831.81
2022-07-26T07:32:33.554Z,96831.81
2022-07-26T07:35:04.830Z,96825.38
2022-07-26T07:37:53.098Z,96828.97
2022-07-26T07:40:22.373Z,96831.66
2022-07-26T07:42:50.814Z,96836.22
2022-07-26T07:45:19.101Z,96843.34
2022-07-26T07:47:47.253Z,96850.47
2022-07-26T07:50:16.707Z,96855.88
2022-07-26T07:52:46.339Z,96860.47
2022-07-26T07:55:40.633Z,96870.28
2022-07-26T07:58:04.217Z,96874.81
2022-07-26T08:00:32.399Z,96879.25
2022-07-26T08:03:00.579Z,96877.41
2022-07-26T08:05:30.102Z,96868.44
2022-07-26T08:07:58.213Z,96872.00
2022-07-26T08:10:26.395Z,96876.56
2022-07-26T08:12:54.503Z,96871.00
2022-07-26T08:15:23.508Z,96871.00
2022-07-26T08:17:54.030Z,96872.72
2022-07-26T08:20:24.843Z,96871.00
2022-07-26T08:22:54.558Z,96874.72
2022-07-26T08:25:22.825Z,96880.13
2022-07-26T08:28:03.200Z,96894.47
2022-07-26T08:30:32.134Z,96884.66
2022-07-26T08:33:00.340Z,96887.53
2022-07-26T08:35:29.584Z,96892.94
2022-07-26T08:37:59.295Z,96893.78
2022-07-26T08:40:27.398Z,96891.22
2022-07-26T08:42:56.366Z,96898.34
2022-07-26T08:45:24.618Z,96900.19
2022-07-26T08:48:15.377Z,96905.63
2022-07-26T08:50:41.515Z,96913.72
2022-07-26T08:53:13.085Z,96916.59
2022-07-26T08:58:29.462Z,96928.53
2022-07-26T09:01:08.102Z,96929.53
2022-07-26T09:03:38.003Z,96927.78
2022-07-26T09:06:16.127Z,96925.22
2022-07-26T09:08:45.851Z,96927.06
2022-07-26T09:11:33.115Z,96933.47
2022-07-26T09:14:02.103Z,96937.19
2022-07-26T09:16:30.360Z,96933.63
2022-07-26T09:19:17.895Z,96946.28
2022-07-26T09:21:46.553Z,96946.44
2022-07-26T09:24:20.527Z,96952.00
2022-07-26T09:26:56.509Z,96941.31
2022-07-26T09:29:24.677Z,96950.41
2022-07-26T09:31:52.895Z,96948.72
2022-07-26T09:34:25.662Z,96947.13
2022-07-26T09:36:55.722Z,96947.13
2022-07-26T09:39:33.703Z,96950.81
2022-07-26T09:42:27.238Z,96955.41
2022-07-26T09:44:56.849Z,96955.41
2022-07-26T09:47:25.268Z,96965.34
2022-07-26T09:50:12.113Z,96973.47
2022-07-26T09:52:40.413Z,96976.19
2022-07-26T09:55:13.470Z,96985.28
2022-07-26T09:57:41.607Z,96989.84
2022-07-26T10:00:11.003Z,96986.13
2022-07-26T10:02:39.195Z,96986.00
2022-07-26T10:05:07.878Z,96981.44
2022-07-26T10:07:36.099Z,96975.16
2022-07-26T10:10:06.488Z,96977.88
2022-07-26T10:12:35.998Z,96975.88
2022-07-26T10:15:04.271Z,96984.88
2022-07-26T10:17:42.803Z,96976.59
2022-07-26T10:20:17.228Z,96978.34
2022-07-26T10:22:49.005Z,96988.16
2022-07-26T10:25:47.398Z,96988.88
2022-07-26T10:28:30.574Z,96982.47
2022-07-26T10:31:33.149Z,96979.63
2022-07-26T10:34:01.887Z,96978.91
2022-07-26T10:36:34.932Z,96984.16
2022-07-26T10:39:08.036Z,96976.06
2022-07-26T10:41:38.391Z,96972.22
2022-07-26T10:44:27.446Z,96972.94
2022-07-26T10:47:11.343Z,96973.81
2022-07-26T10:49:40.130Z,96970.13
2022-07-26T10:52:13.310Z,96964.59
2022-07-26T10:55:09.270Z,96960.16
2022-07-26T10:57:38.296Z,96959.19
2022-07-26T11:00:13.592Z,96963.44
2022-07-26T11:02:43.890Z,96966.84
2022-07-26T11:05:16.463Z,96965.88
2022-07-26T11:07:58.609Z,96967.56
2022-07-26T11:10:28.658Z,96962.88
2022-07-26T11:13:18.463Z,96964.75
2022-07-26T11:15:49.052Z,96955.63
2022-07-26T11:18:22.594Z,96953.63
2022-07-26T11:20:52.955Z,96958.88
2022-07-26T11:23:23.208Z,96949.78
2022-07-26T11:26:18.803Z,96947.09
2022-07-26T11:28:54.485Z,96950.50
2022-07-26T11:31:49.263Z,96955.06
2022-07-26T11:34:18.371Z,96951.38
2022-07-26T11:36:46.754Z,96950.34
2022-07-26T11:39:16.010Z,96961.19
2022-07-26T11:41:44.345Z,96953.91
2022-07-26T11:44:16.704Z,96955.63
2022-07-26T11:46:48.278Z,96947.38
2022-07-26T11:49:17.703Z,96946.38
2022-07-26T11:51:55.703Z,96944.53
2022-07-26T11:54:24.254Z,96941.81
2022-07-26T11:56:55.960Z,96947.09
2022-07-26T11:59:24.857Z,96937.13
2022-07-26T12:01:54.627Z,96935.28
2022-07-26T12:04:23.788Z,96936.09
2022-07-26T12:06:52.068Z,96932.41
2022-07-26T12:09:29.913Z,96931.41
2022-07-26T12:11:58.128Z,96925.16
2022-07-26T12:14:27.130Z,96931.41
2022-07-26T12:16:56.683Z,96924.00
2022-07-26T12:19:29.848Z,96929.41
2022-07-26T12:21:59.646Z,96927.56
2022-07-26T12:24:38.866Z,96925.72
2022-07-26T12:27:10.761Z,96921.16
2022-07-26T12:29:39.108Z,96922.00
2022-07-26T12:32:13.999Z,96920.31
2022-07-26T12:34:44.454Z,96921.28
2022-07-26T12:37:17.623Z,96910.44
2022-07-26T12:40:00.896Z,96917.75
2022-07-26T12:42:33.398Z,96915.88
2022-07-26T12:45:03.219Z,96912.44
2022-07-26T12:47:33.271Z,96912.44
2022-07-26T12:50:03.636Z,96906.91
2022-07-26T12:52:33.825Z,96908.75
2022-07-26T12:55:02.372Z,96912.03
2022-07-26T12:57:30.915Z,96907.16
2022-07-26T12:59:59.533Z,96904.34
2022-07-26T13:02:28.205Z,96908.75
2022-07-26T13:05:00.455Z,96895.06
2022-07-26T13:07:28.992Z,96891.38
2022-07-26T13:10:29.933Z,96889.38
2022-07-26T13:12:46.349Z,96888.34
2022-07-26T13:15:14.975Z,96879.25
2022-07-26T13:17:43.622Z,96877.25
2022-07-26T13:20:13.717Z,96876.22
2022-07-26T13:22:44.970Z,96875.41
2022-07-26T13:25:13.291Z,96872.69
2022-07-26T13:27:44.972Z,96875.41
2022-07-26T13:30:14.393Z,96876.38
2022-07-26T13:32:43.309Z,96876.38
2022-07-26T13:35:13.208Z,96870.97
2022-07-26T13:37:41.757Z,96870.09
2022-07-26T13:40:11.634Z,96867.38
2022-07-26T13:42:40.366Z,96871.81
2022-07-26T13:45:10.222Z,96867.28
2022-07-26T13:47:38.795Z,96867.28
2022-07-26T13:50:08.463Z,96869.81
2022-07-26T13:52:38.623Z,96861.69
2022-07-26T13:55:07.778Z,96874.22
2022-07-26T13:57:47.191Z,96876.81
2022-07-26T14:00:24.836Z,96868.81
2022-07-26T14:02:53.381Z,96870.53
2022-07-26T14:05:22.126Z,96872.13
2022-07-26T14:07:52.259Z,96883.66
2022-07-26T14:10:20.998Z,96884.47
2022-07-26T14:12:49.491Z,96880.78
2022-07-26T14:15:22.599Z,96883.50
2022-07-26T14:17:52.452Z,96872.66
2022-07-26T14:20:21.412Z,96877.06
2022-07-26T14:22:53.802Z,96880.63
2022-07-26T14:25:22.686Z,96886.06
2022-07-26T14:27:51.768Z,96883.34
2022-07-26T14:30:20.713Z,96884.22
2022-07-26T14:32:49.492Z,96886.06
2022-07-26T14:35:18.792Z,96888.63
2022-07-26T14:37:47.502Z,96878.78
2022-07-26T14:40:18.239Z,96877.78
2022-07-26T14:42:46.786Z,96881.34
2022-07-26T14:45:15.550Z,96875.06
2022-07-26T14:47:44.292Z,96873.22
2022-07-26T14:50:13.738Z,96877.78
2022-07-26T14:52:43.868Z,96872.34
2022-07-26T14:55:12.395Z,96865.25
2022-07-26T14:57:42.369Z,96861.53
2022-07-26T15:00:12.666Z,96864.38
2022-07-26T15:02:41.771Z,96855.41
2022-07-26T15:05:11.253Z,96858.97
2022-07-26T15:07:40.006Z,96854.41
2022-07-26T15:10:09.484Z,96856.25
2022-07-26T15:12:38.206Z,96853.56
2022-07-26T15:15:09.019Z,96848.13
2022-07-26T15:17:37.646Z,96848.84
2022-07-26T15:20:07.486Z,96847.03
2022-07-26T15:22:36.347Z,96847.88
2022-07-26T15:25:05.007Z,96857.88
2022-07-26T15:27:33.312Z,96854.13
2022-07-26T15:30:05.098Z,96863.28
2022-07-26T15:32:36.684Z,96856.97
2022-07-26T15:35:05.691Z,96865.09
2022-07-26T15:37:34.219Z,96866.22
2022-07-26T15:40:02.902Z,96873.53
2022-07-26T15:42:31.910Z,96875.38
2022-07-26T15:45:01.189Z,96877.22
2022-07-26T15:47:59.311Z,96888.22
2022-07-26T15:50:28.366Z,96882.94
2022-07-26T15:52:56.894Z,96885.66
2022-07-26T15:55:25.913Z,96878.34
2022-07-26T15:57:55.232Z,96879.38
2022-07-26T16:00:23.684Z,96878.50
2022-07-26T16:02:53.546Z,96872.13
2022-07-26T16:05:22.105Z,96868.53
2022-07-26T16:07:50.744Z,96871.41
2022-07-26T16:10:19.464Z,96884.94
2022-07-26T16:12:48.220Z,96884.09
2022-07-26T16:15:16.764Z,96885.06
2022-07-26T16:17:45.374Z,96884.22
2022-07-26T16:20:15.926Z,96881.53
2022-07-26T16:22:44.761Z,96875.25
2022-07-26T16:25:14.329Z,96889.66
2022-07-26T16:27:43.198Z,96883.38
2022-07-26T16:30:12.477Z,96888.06
2022-07-26T16:32:40.536Z,96899.91
2022-07-26T16:35:09.367Z,96900.03
2022-07-26T16:37:39.005Z,96889.22
2022-07-26T16:40:08.358Z,96891.91
2022-07-26T16:42:36.646Z,96895.50
2022-07-26T16:45:05.601Z,96899.19
2022-07-26T16:47:34.143Z,96908.16
2022-07-26T16:50:02.594Z,96910.72
2022-07-26T16:52:30.891Z,96906.31
2022-07-26T16:55:01.205Z,96919.00
2022-07-26T16:57:29.524Z,96909.31
2022-07-26T16:59:57.915Z,96907.47
2022-07-26T17:02:26.250Z,96910.31
2022-07-26T17:04:55.921Z,96913.03
2022-07-26T17:07:25.774Z,96908.47
2022-07-26T17:09:55.028Z,96917.44
2022-07-26T17:12:24.903Z,96922.00
2022-07-26T17:14:53.260Z,96925.56
2022-07-26T17:17:21.638Z,96923.72
2022-07-26T17:19:50.014Z,96925.44
2022-07-26T17:22:18.484Z,96933.56
2022-07-26T17:24:47.061Z,96940.81
2022-07-26T17:27:15.517Z,96940.81
2022-07-26T17:29:45.335Z,96939.97
2022-07-26T17:32:13.750Z,96943.53
2022-07-26T17:34:42.101Z,96937.25
2022-07-26T17:37:13.139Z,96939.97
2022-07-26T17:39:50.889Z,96941.81
2022-07-26T17:42:21.145Z,96933.69
2022-07-26T17:44:50.680Z,96941.81
2022-07-26T17:47:29.549Z,96938.13
2022-07-26T17:52:48.745Z,96937.97
2022-07-26T17:55:18.510Z,96941.69
2022-07-26T17:57:47.791Z,96946.25
2022-07-26T18:00:18.127Z,96957.06
2022-07-26T18:02:46.624Z,96959.78
2022-07-26T18:05:14.907Z,96960.75
2022-07-26T18:07:43.048Z,96966.19
2022-07-26T18:10:11.673Z,96974.31
2022-07-26T18:12:39.815Z,96961.78
2022-07-26T18:15:08.942Z,96961.78
2022-07-26T18:17:41.459Z,96964.63
2022-07-26T18:20:10.882Z,96967.47
2022-07-26T18:22:38.984Z,96978.28
2022-07-26T18:25:07.639Z,96974.88
2022-07-26T18:27:35.728Z,96970.47
2022-07-26T18:30:04.101Z,96974.16
2022-07-26T18:32:32.326Z,96984.16
2022-07-26T18:35:01.892Z,96986.00
2022-07-26T18:37:30.076Z,96988.84
2022-07-26T18:39:59.702Z,96989.69
2022-07-26T18:42:27.881Z,96986.16
2022-07-26T18:44:55.955Z,96985.28
2022-07-26T18:47:24.072Z,96991.41
2022-07-26T18:49:52.241Z,96989.56
2022-07-26T18:52:28.267Z,97003.13
2022-07-26T18:54:58.578Z,97003.94
2022-07-26T19:00:29.718Z,97012.22
2022-07-26T19:02:57.951Z,97024.91
2022-07-26T19:05:26.131Z,97029.59
2022-07-26T19:08:04.131Z,97042.41
2022-07-26T19:10:32.239Z,97038.00
2022-07-26T19:13:00.346Z,97047.13
2022-07-26T19:15:29.778Z,97043.69
2022-07-26T19:17:57.998Z,97051.97
2022-07-26T19:20:26.104Z,97060.22
2022-07-26T19:22:54.184Z,97058.38
2022-07-26T19:25:23.703Z,97060.38
2022-07-26T19:27:51.948Z,97055.94
2022-07-26T19:30:20.099Z,97054.25
2022-07-26T19:32:48.173Z,97053.38
2022-07-26T19:35:16.252Z,97057.22
2022-07-26T19:37:45.760Z,97058.22
2022-07-26T19:40:14.474Z,97065.19
2022-07-26T19:42:43.987Z,97064.94
2022-07-26T19:45:12.647Z,97067.63
2022-07-26T19:47:41.145Z,97075.47
2022-07-26T19:50:10.167Z,97075.91
2022-07-26T19:52:38.272Z,97075.59
2022-07-26T19:55:07.379Z,97074.28
2022-07-26T19:57:35.450Z,97066.03
2022-07-26T20:00:05.887Z,97068.59
2022-07-26T20:02:40.989Z,97060.22
2022-07-26T20:05:10.253Z,97057.50
2022-07-26T20:07:38.314Z,97060.94
2022-07-26T20:10:07.738Z,97072.47
2022-07-26T20:12:37.680Z,97078.59
2022-07-26T20:15:08.470Z,97074.88
2022-07-26T20:18:10.846Z,97077.44
2022-07-26T20:20:39.504Z,97086.44
2022-07-26T20:23:12.019Z,97082.75
2022-07-26T20:25:51.006Z,97079.03
2022-07-26T20:28:19.142Z,97083.59
2022-07-26T20:30:51.620Z,97090.72
2022-07-26T20:33:20.170Z,97095.13
2022-07-26T20:35:52.920Z,97096.00
2022-07-26T20:38:23.043Z,97081.59
2022-07-26T20:40:51.215Z,97083.31
2022-07-26T20:43:21.717Z,97080.63
2022-07-26T20:45:51.340Z,97089.59
2022-07-26T20:48:19.468Z,97088.59
2022-07-26T20:50:47.569Z,97103.97
2022-07-26T20:53:15.659Z,97102.13
2022-07-26T20:55:43.871Z,97108.41
2022-07-26T20:58:14.290Z,97106.56
2022-07-26T21:00:43.459Z,97115.53
2022-07-26T21:03:13.795Z,97117.41
2022-07-26T21:05:41.887Z,97119.97
2022-07-26T21:08:10.518Z,97120.13
2022-07-26T21:10:39.055Z,97125.53
2022-07-26T21:13:07.181Z,97118.25
2022-07-26T21:15:35.704Z,97129.06
2022-07-26T21:18:03.768Z,97118.25
2022-07-26T21:20:33.748Z,97109.13
2022-07-26T21:23:15.836Z,97111.84
2022-07-26T21:25:44.782Z,97118.13
2022-07-26T21:28:12.882Z,97117.25
2022-07-26T21:30:41.255Z,97123.53
2022-07-26T21:33:09.338Z,97122.53
2022-07-26T21:35:41.042Z,97118.94
2022-07-26T21:38:09.339Z,97120.84
2022-07-26T21:40:37.550Z,97121.66
2022-07-26T21:43:05.687Z,97122.69
2022-07-26T21:45:33.806Z,97110.00
2022-07-26T21:48:02.040Z,97117.25
2022-07-26T21:50:30.526Z,97119.97
2022-07-26T21:53:01.201Z,97123.53
2022-07-26T21:55:30.203Z,97125.38
2022-07-26T21:57:58.328Z,97120.94
2022-07-26T22:00:26.528Z,97120.94
2022-07-26T22:02:56.263Z,97123.66
2022-07-26T22:05:38.029Z,97124.66
2022-07-26T22:08:09.033Z,97128.09
2022-07-26T22:10:44.205Z,97120.94
2022-07-26T22:13:13.078Z,97115.53
2022-07-26T22:15:41.117Z,97116.53
2022-07-26T22:18:10.002Z,97126.34
2022-07-26T22:20:38.426Z,97123.78
2022-07-26T22:23:09.278Z,97122.81
2022-07-26T22:25:38.135Z,97120.94
2022-07-26T22:28:06.726Z,97117.41
2022-07-26T22:30:34.858Z,97120.13
2022-07-26T22:33:03.953Z,97126.34
2022-07-26T22:35:36.384Z,97130.94
2022-07-26T22:38:05.518Z,97123.78
2022-07-26T22:40:35.259Z,97128.34
2022-07-26T22:43:03.446Z,97132.06
2022-07-26T22:45:31.614Z,97122.09
2022-07-26T22:47:59.823Z,97119.50
2022-07-26T22:50:27.951Z,97126.78
2022-07-26T22:52:56.190Z,97127.63
2022-07-26T22:55:24.268Z,97115.09
2022-07-26T22:57:53.759Z,97115.97
2022-07-26T23:00:22.015Z,97117.81
2022-07-26T23:02:50.204Z,97122.34
2022-07-26T23:05:18.266Z,97110.66
2022-07-26T23:07:48.153Z,97104.41
2022-07-26T23:10:16.512Z,97108.09
2022-07-26T23:12:44.843Z,97103.56
2022-07-26T23:15:14.432Z,97097.28
2022-07-26T23:17:42.542Z,97105.38
2022-07-26T23:20:11.469Z,97107.22
2022-07-26T23:22:41.857Z,97108.25
2022-07-26T23:25:10.754Z,97104.53
2022-07-26T23:27:38.854Z,97115.50
2022-07-26T23:30:07.754Z,97113.66
2022-07-26T23:32:37.279Z,97115.50
2022-07-26T23:35:06.234Z,97107.38
2022-07-26T23:37:34.914Z,97100.28
2022-07-26T23:40:03.036Z,97107.38
2022-07-26T23:42:31.145Z,97112.78
2022-07-26T23:44:59.260Z,97112.94
2022-07-26T23:47:27.381Z,97119.34
2022-07-26T23:49:56.891Z,97116.63
2022-07-26T23:52:25.730Z,97111.22
2022-07-26T23:54:53.922Z,97113.09
2022-07-26T23:57:22.991Z,97110.38
2022-07-26T23:59:51.117Z,97109.50
